sensor_id;sensor_type;location;lat;lon;timestamp;temperature;humidity
29363;DHT22;16349;53.672;10.014;2023-07-31T00:01:00;14.60;99.90
29363;DHT22;16349;53.672;10.014;2023-07-31T00:03:27;14.60;99.90
29363;DHT22;16349;53.672;10.014;2023-07-31T00:05:55;14.70;99.90
29363;DHT22;16349;53.672;10.014;2023-07-31T00:08:22;14.70;99.90
29363;DHT22;16349;53.672;10.014;2023-07-31T00:10:51;14.70;99.90
29363;DHT22;16349;53.672;10.014;2023-07-31T00:13:18;14.70;99.90
29363;DHT22;16349;53.672;10.014;2023-07-31T00:15:45;14.70;99.90
29363;DHT22;16349;53.672;10.014;2023-07-31T00:18:11;14.70;99.90
29363;DHT22;16349;53.672;10.014;2023-07-31T00:20:38;14.70;99.90
29363;DHT22;16349;53.672;10.014;2023-07-31T00:23:06;14.80;99.90
29363;DHT22;16349;53.672;10.014;2023-07-31T00:25:33;14.80;99.90
29363;DHT22;16349;53.672;10.014;2023-07-31T00:28:00;14.80;99.90
29363;DHT22;16349;53.672;10.014;2023-07-31T00:30:28;14.80;99.90
29363;DHT22;16349;53.672;10.014;2023-07-31T00:32:54;14.80;99.90
29363;DHT22;16349;53.672;10.014;2023-07-31T00:35:21;14.80;99.90
29363;DHT22;16349;53.672;10.014;2023-07-31T00:37:48;14.80;99.90
29363;DHT22;16349;53.672;10.014;2023-07-31T00:40:16;14.90;99.90
29363;DHT22;16349;53.672;10.014;2023-07-31T00:42:43;14.90;99.90
29363;DHT22;16349;53.672;10.014;2023-07-31T00:45:10;14.90;99.90
29363;DHT22;16349;53.672;10.014;2023-07-31T00:47:37;14.90;99.90
29363;DHT22;16349;53.672;10.014;2023-07-31T00:50:05;14.90;99.90
29363;DHT22;16349;53.672;10.014;2023-07-31T00:52:32;14.90;99.90
29363;DHT22;16349;53.672;10.014;2023-07-31T00:54:59;14.80;99.90
29363;DHT22;16349;53.672;10.014;2023-07-31T00:57:28;14.80;99.90
29363;DHT22;16349;53.672;10.014;2023-07-31T00:59:54;14.90;99.90
29363;DHT22;16349;53.672;10.014;2023-07-31T01:02:21;14.80;99.90
29363;DHT22;16349;53.672;10.014;2023-07-31T01:04:48;14.80;99.90
29363;DHT22;16349;53.672;10.014;2023-07-31T01:07:21;14.80;99.90
29363;DHT22;16349;53.672;10.014;2023-07-31T01:09:55;14.80;99.90
29363;DHT22;16349;53.672;10.014;2023-07-31T01:12:29;14.80;99.90
29363;DHT22;16349;53.672;10.014;2023-07-31T01:15:04;14.80;99.90
29363;DHT22;16349;53.672;10.014;2023-07-31T01:17:32;14.80;99.90
29363;DHT22;16349;53.672;10.014;2023-07-31T01:20:01;14.80;99.90
29363;DHT22;16349;53.672;10.014;2023-07-31T01:22:54;14.80;99.90
29363;DHT22;16349;53.672;10.014;2023-07-31T01:25:36;14.80;99.90
29363;DHT22;16349;53.672;10.014;2023-07-31T01:28:11;14.80;99.90
29363;DHT22;16349;53.672;10.014;2023-07-31T01:30:43;14.80;99.90
29363;DHT22;16349;53.672;10.014;2023-07-31T01:33:11;14.80;99.90
29363;DHT22;16349;53.672;10.014;2023-07-31T01:35:38;14.80;99.90
29363;DHT22;16349;53.672;10.014;2023-07-31T01:38:05;14.80;99.90
29363;DHT22;16349;53.672;10.014;2023-07-31T01:40:33;14.70;99.90
29363;DHT22;16349;53.672;10.014;2023-07-31T01:43:00;14.70;99.90
29363;DHT22;16349;53.672;10.014;2023-07-31T01:45:29;14.80;99.90
29363;DHT22;16349;53.672;10.014;2023-07-31T01:47:56;14.70;99.90
29363;DHT22;16349;53.672;10.014;2023-07-31T01:50:23;14.70;99.90
29363;DHT22;16349;53.672;10.014;2023-07-31T01:52:50;14.70;99.90
29363;DHT22;16349;53.672;10.014;2023-07-31T01:55:17;14.70;99.90
29363;DHT22;16349;53.672;10.014;2023-07-31T01:57:43;14.70;99.90
29363;DHT22;16349;53.672;10.014;2023-07-31T02:00:11;14.70;99.90
29363;DHT22;16349;53.672;10.014;2023-07-31T02:02:39;14.70;99.90
29363;DHT22;16349;53.672;10.014;2023-07-31T02:05:06;14.70;99.90
29363;DHT22;16349;53.672;10.014;2023-07-31T02:07:33;14.70;99.90
29363;DHT22;16349;53.672;10.014;2023-07-31T02:10:00;14.70;99.90
29363;DHT22;16349;53.672;10.014;2023-07-31T02:12:27;14.70;99.90
29363;DHT22;16349;53.672;10.014;2023-07-31T02:14:56;14.70;99.90
29363;DHT22;16349;53.672;10.014;2023-07-31T02:17:22;14.70;99.90
29363;DHT22;16349;53.672;10.014;2023-07-31T02:19:51;14.70;99.90
29363;DHT22;16349;53.672;10.014;2023-07-31T02:22:18;14.80;99.90
29363;DHT22;16349;53.672;10.014;2023-07-31T02:24:45;14.70;99.90
29363;DHT22;16349;53.672;10.014;2023-07-31T02:27:12;14.70;99.90
29363;DHT22;16349;53.672;10.014;2023-07-31T02:29:39;14.80;99.90
29363;DHT22;16349;53.672;10.014;2023-07-31T02:32:06;14.80;99.90
29363;DHT22;16349;53.672;10.014;2023-07-31T02:34:33;14.80;99.90
29363;DHT22;16349;53.672;10.014;2023-07-31T02:37:01;14.80;99.90
29363;DHT22;16349;53.672;10.014;2023-07-31T02:39:28;14.80;99.90
29363;DHT22;16349;53.672;10.014;2023-07-31T02:41:55;14.80;99.90
29363;DHT22;16349;53.672;10.014;2023-07-31T02:44:22;14.80;99.90
29363;DHT22;16349;53.672;10.014;2023-07-31T02:46:49;14.80;99.90
29363;DHT22;16349;53.672;10.014;2023-07-31T02:49:16;14.80;99.90
29363;DHT22;16349;53.672;10.014;2023-07-31T02:51:43;14.80;99.90
29363;DHT22;16349;53.672;10.014;2023-07-31T02:54:11;14.90;99.90
29363;DHT22;16349;53.672;10.014;2023-07-31T02:56:38;14.80;99.90
29363;DHT22;16349;53.672;10.014;2023-07-31T02:59:05;14.90;99.90
29363;DHT22;16349;53.672;10.014;2023-07-31T03:01:32;14.90;99.90
29363;DHT22;16349;53.672;10.014;2023-07-31T03:03:59;14.90;99.90
29363;DHT22;16349;53.672;10.014;2023-07-31T03:06:26;14.90;99.90
29363;DHT22;16349;53.672;10.014;2023-07-31T03:08:53;14.90;99.90
29363;DHT22;16349;53.672;10.014;2023-07-31T03:11:21;14.90;99.90
29363;DHT22;16349;53.672;10.014;2023-07-31T03:13:48;14.90;99.90
29363;DHT22;16349;53.672;10.014;2023-07-31T03:16:15;14.90;99.90
29363;DHT22;16349;53.672;10.014;2023-07-31T03:18:42;14.90;99.90
29363;DHT22;16349;53.672;10.014;2023-07-31T03:21:09;14.90;99.90
29363;DHT22;16349;53.672;10.014;2023-07-31T03:23:36;14.90;99.90
29363;DHT22;16349;53.672;10.014;2023-07-31T03:26:05;14.90;99.90
29363;DHT22;16349;53.672;10.014;2023-07-31T03:28:33;15.00;99.90
29363;DHT22;16349;53.672;10.014;2023-07-31T03:31:00;15.00;99.90
29363;DHT22;16349;53.672;10.014;2023-07-31T03:33:27;15.00;99.90
29363;DHT22;16349;53.672;10.014;2023-07-31T03:35:54;14.90;99.90
29363;DHT22;16349;53.672;10.014;2023-07-31T03:38:21;14.90;99.90
29363;DHT22;16349;53.672;10.014;2023-07-31T03:40:48;14.90;99.90
29363;DHT22;16349;53.672;10.014;2023-07-31T03:43:15;15.00;99.90
29363;DHT22;16349;53.672;10.014;2023-07-31T03:45:43;14.90;99.90
29363;DHT22;16349;53.672;10.014;2023-07-31T03:48:11;15.00;99.90
29363;DHT22;16349;53.672;10.014;2023-07-31T03:50:37;15.00;99.90
29363;DHT22;16349;53.672;10.014;2023-07-31T03:53:04;15.00;99.90
29363;DHT22;16349;53.672;10.014;2023-07-31T03:55:31;15.00;99.90
29363;DHT22;16349;53.672;10.014;2023-07-31T03:57:58;15.00;99.90
29363;DHT22;16349;53.672;10.014;2023-07-31T04:00:26;15.10;99.90
29363;DHT22;16349;53.672;10.014;2023-07-31T04:02:54;15.10;99.90
29363;DHT22;16349;53.672;10.014;2023-07-31T04:05:21;15.10;99.90
29363;DHT22;16349;53.672;10.014;2023-07-31T04:07:48;15.10;99.90
29363;DHT22;16349;53.672;10.014;2023-07-31T04:10:15;15.10;99.90
29363;DHT22;16349;53.672;10.014;2023-07-31T04:12:42;15.20;99.90
29363;DHT22;16349;53.672;10.014;2023-07-31T04:15:09;15.10;99.90
29363;DHT22;16349;53.672;10.014;2023-07-31T04:17:36;15.20;99.90
29363;DHT22;16349;53.672;10.014;2023-07-31T04:20:05;15.20;99.90
29363;DHT22;16349;53.672;10.014;2023-07-31T04:22:32;15.20;99.90
29363;DHT22;16349;53.672;10.014;2023-07-31T04:24:59;15.20;99.90
29363;DHT22;16349;53.672;10.014;2023-07-31T04:27:26;15.20;99.90
29363;DHT22;16349;53.672;10.014;2023-07-31T04:29:53;15.30;99.90
29363;DHT22;16349;53.672;10.014;2023-07-31T04:32:19;15.20;99.90
29363;DHT22;16349;53.672;10.014;2023-07-31T04:34:46;15.30;99.90
29363;DHT22;16349;53.672;10.014;2023-07-31T04:37:14;15.20;99.90
29363;DHT22;16349;53.672;10.014;2023-07-31T04:39:41;15.30;99.90
29363;DHT22;16349;53.672;10.014;2023-07-31T04:42:08;15.30;99.90
29363;DHT22;16349;53.672;10.014;2023-07-31T04:44:35;15.30;99.90
29363;DHT22;16349;53.672;10.014;2023-07-31T04:47:02;15.30;99.90
29363;DHT22;16349;53.672;10.014;2023-07-31T04:49:29;15.30;99.90
29363;DHT22;16349;53.672;10.014;2023-07-31T04:51:56;15.30;99.90
29363;DHT22;16349;53.672;10.014;2023-07-31T04:54:24;15.30;99.90
29363;DHT22;16349;53.672;10.014;2023-07-31T04:56:51;15.40;99.90
29363;DHT22;16349;53.672;10.014;2023-07-31T04:59:18;15.40;99.90
29363;DHT22;16349;53.672;10.014;2023-07-31T05:01:45;15.40;99.90
29363;DHT22;16349;53.672;10.014;2023-07-31T05:04:12;15.40;99.90
29363;DHT22;16349;53.672;10.014;2023-07-31T05:06:39;15.40;99.90
29363;DHT22;16349;53.672;10.014;2023-07-31T05:09:06;15.40;99.90
29363;DHT22;16349;53.672;10.014;2023-07-31T05:11:36;15.50;99.90
29363;DHT22;16349;53.672;10.014;2023-07-31T05:14:03;15.40;99.90
29363;DHT22;16349;53.672;10.014;2023-07-31T05:16:30;15.40;99.90
29363;DHT22;16349;53.672;10.014;2023-07-31T05:18:57;15.50;99.90
29363;DHT22;16349;53.672;10.014;2023-07-31T05:21:23;15.50;99.90
29363;DHT22;16349;53.672;10.014;2023-07-31T05:23:50;15.50;99.90
29363;DHT22;16349;53.672;10.014;2023-07-31T05:26:17;15.50;99.90
29363;DHT22;16349;53.672;10.014;2023-07-31T05:28:45;15.50;99.90
29363;DHT22;16349;53.672;10.014;2023-07-31T05:31:12;15.50;99.90
29363;DHT22;16349;53.672;10.014;2023-07-31T05:33:39;15.50;99.90
29363;DHT22;16349;53.672;10.014;2023-07-31T05:36:06;15.50;99.90
29363;DHT22;16349;53.672;10.014;2023-07-31T05:38:33;15.50;99.90
29363;DHT22;16349;53.672;10.014;2023-07-31T05:40:59;15.50;99.90
29363;DHT22;16349;53.672;10.014;2023-07-31T05:43:26;15.50;99.90
29363;DHT22;16349;53.672;10.014;2023-07-31T05:45:54;15.50;99.90
29363;DHT22;16349;53.672;10.014;2023-07-31T05:48:21;15.50;99.90
29363;DHT22;16349;53.672;10.014;2023-07-31T05:50:48;15.50;99.90
29363;DHT22;16349;53.672;10.014;2023-07-31T05:53:15;15.50;99.90
29363;DHT22;16349;53.672;10.014;2023-07-31T05:55:42;15.50;99.90
29363;DHT22;16349;53.672;10.014;2023-07-31T05:58:09;15.50;99.90
29363;DHT22;16349;53.672;10.014;2023-07-31T06:00:36;15.50;99.90
29363;DHT22;16349;53.672;10.014;2023-07-31T06:03:04;15.50;99.90
29363;DHT22;16349;53.672;10.014;2023-07-31T06:05:31;15.60;99.90
29363;DHT22;16349;53.672;10.014;2023-07-31T06:07:58;15.60;99.90
29363;DHT22;16349;53.672;10.014;2023-07-31T06:10:24;15.60;99.90
29363;DHT22;16349;53.672;10.014;2023-07-31T06:12:52;15.60;99.90
29363;DHT22;16349;53.672;10.014;2023-07-31T06:15:19;15.70;99.90
29363;DHT22;16349;53.672;10.014;2023-07-31T06:17:46;15.70;99.90
29363;DHT22;16349;53.672;10.014;2023-07-31T06:20:15;15.70;99.90
29363;DHT22;16349;53.672;10.014;2023-07-31T06:22:42;15.70;99.90
29363;DHT22;16349;53.672;10.014;2023-07-31T06:25:09;15.70;99.90
29363;DHT22;16349;53.672;10.014;2023-07-31T06:27:36;15.60;99.90
29363;DHT22;16349;53.672;10.014;2023-07-31T06:30:03;15.60;99.90
29363;DHT22;16349;53.672;10.014;2023-07-31T06:32:30;15.70;99.90
29363;DHT22;16349;53.672;10.014;2023-07-31T06:34:57;15.70;99.90
29363;DHT22;16349;53.672;10.014;2023-07-31T06:37:25;15.70;99.90
29363;DHT22;16349;53.672;10.014;2023-07-31T06:39:52;15.70;99.90
29363;DHT22;16349;53.672;10.014;2023-07-31T06:42:19;15.70;99.90
29363;DHT22;16349;53.672;10.014;2023-07-31T06:44:46;15.70;99.90
29363;DHT22;16349;53.672;10.014;2023-07-31T06:47:13;15.70;99.90
29363;DHT22;16349;53.672;10.014;2023-07-31T06:49:55;15.70;99.90
29363;DHT22;16349;53.672;10.014;2023-07-31T06:52:22;15.70;99.90
29363;DHT22;16349;53.672;10.014;2023-07-31T06:55:02;15.70;99.90
29363;DHT22;16349;53.672;10.014;2023-07-31T06:57:29;15.70;99.90
29363;DHT22;16349;53.672;10.014;2023-07-31T06:59:56;15.80;99.90
29363;DHT22;16349;53.672;10.014;2023-07-31T07:02:23;15.80;99.90
29363;DHT22;16349;53.672;10.014;2023-07-31T07:04:50;15.80;99.90
29363;DHT22;16349;53.672;10.014;2023-07-31T07:07:18;15.70;99.90
29363;DHT22;16349;53.672;10.014;2023-07-31T07:09:46;15.70;99.90
29363;DHT22;16349;53.672;10.014;2023-07-31T07:12:14;15.80;99.90
29363;DHT22;16349;53.672;10.014;2023-07-31T07:14:41;15.80;99.90
29363;DHT22;16349;53.672;10.014;2023-07-31T07:17:07;15.80;99.90
29363;DHT22;16349;53.672;10.014;2023-07-31T07:19:34;15.90;99.90
29363;DHT22;16349;53.672;10.014;2023-07-31T07:22:01;15.90;99.90
29363;DHT22;16349;53.672;10.014;2023-07-31T07:24:28;15.90;99.90
29363;DHT22;16349;53.672;10.014;2023-07-31T07:26:55;15.90;99.90
29363;DHT22;16349;53.672;10.014;2023-07-31T07:29:23;15.90;99.90
29363;DHT22;16349;53.672;10.014;2023-07-31T07:31:50;15.90;99.90
29363;DHT22;16349;53.672;10.014;2023-07-31T07:34:16;16.00;99.90
29363;DHT22;16349;53.672;10.014;2023-07-31T07:36:43;16.00;99.90
29363;DHT22;16349;53.672;10.014;2023-07-31T07:39:10;16.00;99.90
29363;DHT22;16349;53.672;10.014;2023-07-31T07:41:37;16.00;99.90
29363;DHT22;16349;53.672;10.014;2023-07-31T07:44:04;16.00;99.90
29363;DHT22;16349;53.672;10.014;2023-07-31T07:46:32;16.10;99.90
29363;DHT22;16349;53.672;10.014;2023-07-31T07:48:59;16.00;99.90
29363;DHT22;16349;53.672;10.014;2023-07-31T07:51:26;16.10;99.90
29363;DHT22;16349;53.672;10.014;2023-07-31T07:53:55;16.10;99.90
29363;DHT22;16349;53.672;10.014;2023-07-31T07:56:23;16.10;99.90
29363;DHT22;16349;53.672;10.014;2023-07-31T07:58:50;16.20;99.90
29363;DHT22;16349;53.672;10.014;2023-07-31T08:01:17;16.20;99.90
29363;DHT22;16349;53.672;10.014;2023-07-31T08:03:45;16.20;99.90
29363;DHT22;16349;53.672;10.014;2023-07-31T08:06:12;16.20;99.90
29363;DHT22;16349;53.672;10.014;2023-07-31T08:08:39;16.30;99.90
29363;DHT22;16349;53.672;10.014;2023-07-31T08:11:06;16.40;99.90
29363;DHT22;16349;53.672;10.014;2023-07-31T08:13:33;16.40;99.90
29363;DHT22;16349;53.672;10.014;2023-07-31T08:16:02;16.40;99.90
29363;DHT22;16349;53.672;10.014;2023-07-31T08:18:30;16.40;99.90
29363;DHT22;16349;53.672;10.014;2023-07-31T08:20:59;16.50;99.90
29363;DHT22;16349;53.672;10.014;2023-07-31T08:23:26;16.40;99.90
29363;DHT22;16349;53.672;10.014;2023-07-31T08:25:52;16.50;99.90
29363;DHT22;16349;53.672;10.014;2023-07-31T08:28:19;16.50;99.90
29363;DHT22;16349;53.672;10.014;2023-07-31T08:30:46;16.60;99.90
29363;DHT22;16349;53.672;10.014;2023-07-31T08:33:13;16.60;99.90
29363;DHT22;16349;53.672;10.014;2023-07-31T08:35:40;16.60;99.90
29363;DHT22;16349;53.672;10.014;2023-07-31T08:38:08;16.60;99.90
29363;DHT22;16349;53.672;10.014;2023-07-31T08:40:36;16.50;99.90
29363;DHT22;16349;53.672;10.014;2023-07-31T08:43:04;16.50;99.90
29363;DHT22;16349;53.672;10.014;2023-07-31T08:45:31;16.60;99.90
29363;DHT22;16349;53.672;10.014;2023-07-31T08:47:59;16.60;99.90
29363;DHT22;16349;53.672;10.014;2023-07-31T08:50:26;16.70;99.90
29363;DHT22;16349;53.672;10.014;2023-07-31T08:52:53;16.70;99.90
29363;DHT22;16349;53.672;10.014;2023-07-31T08:55:21;16.80;99.90
29363;DHT22;16349;53.672;10.014;2023-07-31T08:57:51;16.90;99.90
29363;DHT22;16349;53.672;10.014;2023-07-31T09:00:19;16.90;99.90
29363;DHT22;16349;53.672;10.014;2023-07-31T09:02:56;16.90;99.90
29363;DHT22;16349;53.672;10.014;2023-07-31T09:05:23;16.80;99.90
29363;DHT22;16349;53.672;10.014;2023-07-31T09:07:52;16.80;99.90
29363;DHT22;16349;53.672;10.014;2023-07-31T09:10:21;16.80;99.90
29363;DHT22;16349;53.672;10.014;2023-07-31T09:12:48;16.90;99.90
29363;DHT22;16349;53.672;10.014;2023-07-31T09:15:16;16.90;99.90
29363;DHT22;16349;53.672;10.014;2023-07-31T09:17:43;16.90;99.90
29363;DHT22;16349;53.672;10.014;2023-07-31T09:20:14;16.90;99.90
29363;DHT22;16349;53.672;10.014;2023-07-31T09:22:42;16.90;99.90
29363;DHT22;16349;53.672;10.014;2023-07-31T09:25:20;17.00;99.90
29363;DHT22;16349;53.672;10.014;2023-07-31T09:27:50;17.00;99.90
29363;DHT22;16349;53.672;10.014;2023-07-31T09:30:18;17.00;99.90
29363;DHT22;16349;53.672;10.014;2023-07-31T09:32:46;17.10;99.90
29363;DHT22;16349;53.672;10.014;2023-07-31T09:35:18;17.10;99.90
29363;DHT22;16349;53.672;10.014;2023-07-31T09:37:49;17.10;99.90
29363;DHT22;16349;53.672;10.014;2023-07-31T09:40:27;17.00;99.90
29363;DHT22;16349;53.672;10.014;2023-07-31T09:42:58;17.10;99.90
29363;DHT22;16349;53.672;10.014;2023-07-31T09:45:25;17.20;99.90
29363;DHT22;16349;53.672;10.014;2023-07-31T09:47:52;17.10;99.90
29363;DHT22;16349;53.672;10.014;2023-07-31T09:50:21;17.20;99.90
29363;DHT22;16349;53.672;10.014;2023-07-31T09:52:48;17.00;99.90
29363;DHT22;16349;53.672;10.014;2023-07-31T09:55:15;17.00;99.90
29363;DHT22;16349;53.672;10.014;2023-07-31T09:57:44;17.10;99.90
29363;DHT22;16349;53.672;10.014;2023-07-31T10:00:13;17.10;99.90
29363;DHT22;16349;53.672;10.014;2023-07-31T10:02:41;17.10;99.90
29363;DHT22;16349;53.672;10.014;2023-07-31T10:05:08;17.00;99.90
29363;DHT22;16349;53.672;10.014;2023-07-31T10:07:37;17.00;99.90
29363;DHT22;16349;53.672;10.014;2023-07-31T10:10:07;16.90;99.90
29363;DHT22;16349;53.672;10.014;2023-07-31T10:12:34;16.90;99.90
29363;DHT22;16349;53.672;10.014;2023-07-31T10:15:03;16.80;99.90
29363;DHT22;16349;53.672;10.014;2023-07-31T10:17:31;16.90;99.90
29363;DHT22;16349;53.672;10.014;2023-07-31T10:19:58;16.80;99.90
29363;DHT22;16349;53.672;10.014;2023-07-31T10:22:27;16.70;99.90
29363;DHT22;16349;53.672;10.014;2023-07-31T10:24:55;16.80;99.90
29363;DHT22;16349;53.672;10.014;2023-07-31T10:27:24;16.90;99.90
29363;DHT22;16349;53.672;10.014;2023-07-31T10:29:52;16.90;99.90
29363;DHT22;16349;53.672;10.014;2023-07-31T10:32:21;16.80;99.90
29363;DHT22;16349;53.672;10.014;2023-07-31T10:34:49;16.90;99.90
29363;DHT22;16349;53.672;10.014;2023-07-31T10:37:23;16.80;99.90
29363;DHT22;16349;53.672;10.014;2023-07-31T10:40:00;16.80;99.90
29363;DHT22;16349;53.672;10.014;2023-07-31T10:42:32;16.80;99.90
29363;DHT22;16349;53.672;10.014;2023-07-31T10:45:01;16.70;99.90
29363;DHT22;16349;53.672;10.014;2023-07-31T10:47:29;16.70;99.90
29363;DHT22;16349;53.672;10.014;2023-07-31T10:50:17;16.80;99.90
29363;DHT22;16349;53.672;10.014;2023-07-31T10:52:49;16.70;99.90
29363;DHT22;16349;53.672;10.014;2023-07-31T10:55:30;16.70;99.90
29363;DHT22;16349;53.672;10.014;2023-07-31T10:58:05;16.70;99.90
29363;DHT22;16349;53.672;10.014;2023-07-31T11:00:33;16.90;99.90
29363;DHT22;16349;53.672;10.014;2023-07-31T11:03:03;16.80;99.90
29363;DHT22;16349;53.672;10.014;2023-07-31T11:05:47;16.80;99.90
29363;DHT22;16349;53.672;10.014;2023-07-31T11:08:16;16.80;99.90
29363;DHT22;16349;53.672;10.014;2023-07-31T11:10:45;16.80;99.90
29363;DHT22;16349;53.672;10.014;2023-07-31T11:13:12;16.80;99.90
29363;DHT22;16349;53.672;10.014;2023-07-31T11:15:39;16.90;99.90
29363;DHT22;16349;53.672;10.014;2023-07-31T11:18:07;16.90;99.90
29363;DHT22;16349;53.672;10.014;2023-07-31T11:20:36;16.80;99.90
29363;DHT22;16349;53.672;10.014;2023-07-31T11:23:06;16.70;99.90
29363;DHT22;16349;53.672;10.014;2023-07-31T11:25:34;16.70;99.90
29363;DHT22;16349;53.672;10.014;2023-07-31T11:28:03;16.60;99.90
29363;DHT22;16349;53.672;10.014;2023-07-31T11:30:30;16.60;99.90
29363;DHT22;16349;53.672;10.014;2023-07-31T11:32:57;16.60;99.90
29363;DHT22;16349;53.672;10.014;2023-07-31T11:35:25;16.50;99.90
29363;DHT22;16349;53.672;10.014;2023-07-31T11:37:53;16.50;99.90
29363;DHT22;16349;53.672;10.014;2023-07-31T11:40:19;16.50;99.90
29363;DHT22;16349;53.672;10.014;2023-07-31T11:42:46;16.40;99.90
29363;DHT22;16349;53.672;10.014;2023-07-31T11:45:14;16.40;99.90
29363;DHT22;16349;53.672;10.014;2023-07-31T11:47:41;16.40;99.90
29363;DHT22;16349;53.672;10.014;2023-07-31T11:50:10;16.50;99.90
29363;DHT22;16349;53.672;10.014;2023-07-31T11:52:42;16.50;99.90
29363;DHT22;16349;53.672;10.014;2023-07-31T11:55:11;16.50;99.90
29363;DHT22;16349;53.672;10.014;2023-07-31T11:57:39;16.50;99.90
29363;DHT22;16349;53.672;10.014;2023-07-31T12:00:08;16.50;99.90
29363;DHT22;16349;53.672;10.014;2023-07-31T12:02:37;16.50;99.90
29363;DHT22;16349;53.672;10.014;2023-07-31T12:05:05;16.50;99.90
29363;DHT22;16349;53.672;10.014;2023-07-31T12:07:47;16.50;99.90
29363;DHT22;16349;53.672;10.014;2023-07-31T12:10:28;16.60;99.90
29363;DHT22;16349;53.672;10.014;2023-07-31T12:12:57;16.80;99.90
29363;DHT22;16349;53.672;10.014;2023-07-31T12:15:33;16.90;99.90
29363;DHT22;16349;53.672;10.014;2023-07-31T12:18:00;16.80;99.90
29363;DHT22;16349;53.672;10.014;2023-07-31T12:20:27;16.90;99.90
29363;DHT22;16349;53.672;10.014;2023-07-31T12:22:57;16.90;99.90
29363;DHT22;16349;53.672;10.014;2023-07-31T12:25:29;17.00;99.90
29363;DHT22;16349;53.672;10.014;2023-07-31T12:27:56;17.10;99.90
29363;DHT22;16349;53.672;10.014;2023-07-31T12:30:27;17.00;99.90
29363;DHT22;16349;53.672;10.014;2023-07-31T12:32:54;17.00;99.90
29363;DHT22;16349;53.672;10.014;2023-07-31T12:35:21;17.00;99.90
29363;DHT22;16349;53.672;10.014;2023-07-31T12:37:48;17.00;99.90
29363;DHT22;16349;53.672;10.014;2023-07-31T12:40:16;17.00;99.90
29363;DHT22;16349;53.672;10.014;2023-07-31T12:42:43;17.00;99.90
29363;DHT22;16349;53.672;10.014;2023-07-31T12:45:10;17.00;99.90
29363;DHT22;16349;53.672;10.014;2023-07-31T12:47:37;17.00;99.90
29363;DHT22;16349;53.672;10.014;2023-07-31T12:50:04;17.10;99.90
29363;DHT22;16349;53.672;10.014;2023-07-31T12:52:31;17.20;99.90
29363;DHT22;16349;53.672;10.014;2023-07-31T12:54:59;17.20;99.90
29363;DHT22;16349;53.672;10.014;2023-07-31T12:57:27;17.30;99.90
29363;DHT22;16349;53.672;10.014;2023-07-31T12:59:54;17.30;99.90
29363;DHT22;16349;53.672;10.014;2023-07-31T13:02:21;17.40;99.90
29363;DHT22;16349;53.672;10.014;2023-07-31T13:04:49;17.30;99.90
29363;DHT22;16349;53.672;10.014;2023-07-31T13:07:16;17.30;99.90
29363;DHT22;16349;53.672;10.014;2023-07-31T13:09:43;17.10;99.90
29363;DHT22;16349;53.672;10.014;2023-07-31T13:12:10;17.10;99.90
29363;DHT22;16349;53.672;10.014;2023-07-31T13:14:38;17.20;99.90
29363;DHT22;16349;53.672;10.014;2023-07-31T13:17:05;17.20;99.90
29363;DHT22;16349;53.672;10.014;2023-07-31T13:19:32;17.20;99.90
29363;DHT22;16349;53.672;10.014;2023-07-31T13:21:59;17.20;99.90
29363;DHT22;16349;53.672;10.014;2023-07-31T13:24:26;17.10;99.90
29363;DHT22;16349;53.672;10.014;2023-07-31T13:26:53;17.10;99.90
29363;DHT22;16349;53.672;10.014;2023-07-31T13:29:19;17.00;99.90
29363;DHT22;16349;53.672;10.014;2023-07-31T13:31:48;16.90;99.90
29363;DHT22;16349;53.672;10.014;2023-07-31T13:34:15;16.90;99.90
29363;DHT22;16349;53.672;10.014;2023-07-31T13:36:42;17.00;99.90
29363;DHT22;16349;53.672;10.014;2023-07-31T13:39:09;17.10;99.90
29363;DHT22;16349;53.672;10.014;2023-07-31T13:41:36;17.00;99.90
29363;DHT22;16349;53.672;10.014;2023-07-31T13:44:03;17.10;99.90
29363;DHT22;16349;53.672;10.014;2023-07-31T13:46:30;17.00;99.90
29363;DHT22;16349;53.672;10.014;2023-07-31T13:48:59;17.00;99.90
29363;DHT22;16349;53.672;10.014;2023-07-31T13:51:27;17.00;99.90
29363;DHT22;16349;53.672;10.014;2023-07-31T13:53:54;17.00;99.90
29363;DHT22;16349;53.672;10.014;2023-07-31T13:56:20;16.90;99.90
29363;DHT22;16349;53.672;10.014;2023-07-31T13:58:47;16.90;99.90
29363;DHT22;16349;53.672;10.014;2023-07-31T14:01:14;16.80;99.90
29363;DHT22;16349;53.672;10.014;2023-07-31T14:03:41;16.80;99.90
29363;DHT22;16349;53.672;10.014;2023-07-31T14:06:09;16.80;99.90
29363;DHT22;16349;53.672;10.014;2023-07-31T14:08:36;16.70;99.90
29363;DHT22;16349;53.672;10.014;2023-07-31T14:11:03;16.70;99.90
29363;DHT22;16349;53.672;10.014;2023-07-31T14:13:30;16.60;99.90
29363;DHT22;16349;53.672;10.014;2023-07-31T14:15:57;16.60;99.90
29363;DHT22;16349;53.672;10.014;2023-07-31T14:18:23;16.70;99.90
29363;DHT22;16349;53.672;10.014;2023-07-31T14:20:52;16.80;99.90
29363;DHT22;16349;53.672;10.014;2023-07-31T14:23:20;16.80;99.90
29363;DHT22;16349;53.672;10.014;2023-07-31T14:25:47;16.90;99.90
29363;DHT22;16349;53.672;10.014;2023-07-31T14:28:13;16.90;99.90
29363;DHT22;16349;53.672;10.014;2023-07-31T14:30:40;16.90;99.90
29363;DHT22;16349;53.672;10.014;2023-07-31T14:33:07;16.90;99.90
29363;DHT22;16349;53.672;10.014;2023-07-31T14:35:34;16.90;99.90
29363;DHT22;16349;53.672;10.014;2023-07-31T14:38:01;16.90;99.90
29363;DHT22;16349;53.672;10.014;2023-07-31T14:40:29;16.80;99.90
29363;DHT22;16349;53.672;10.014;2023-07-31T14:42:56;16.90;99.90
29363;DHT22;16349;53.672;10.014;2023-07-31T14:45:23;16.90;99.90
29363;DHT22;16349;53.672;10.014;2023-07-31T14:47:50;16.80;99.90
29363;DHT22;16349;53.672;10.014;2023-07-31T14:50:17;16.90;99.90
29363;DHT22;16349;53.672;10.014;2023-07-31T14:52:44;17.00;99.90
29363;DHT22;16349;53.672;10.014;2023-07-31T14:55:11;17.00;99.90
29363;DHT22;16349;53.672;10.014;2023-07-31T14:57:39;17.00;99.90
29363;DHT22;16349;53.672;10.014;2023-07-31T15:00:07;17.00;99.90
29363;DHT22;16349;53.672;10.014;2023-07-31T15:02:36;17.00;99.90
29363;DHT22;16349;53.672;10.014;2023-07-31T15:05:04;17.10;99.90
29363;DHT22;16349;53.672;10.014;2023-07-31T15:07:32;17.00;99.90
29363;DHT22;16349;53.672;10.014;2023-07-31T15:09:58;17.00;99.90
29363;DHT22;16349;53.672;10.014;2023-07-31T15:12:26;17.00;99.90
29363;DHT22;16349;53.672;10.014;2023-07-31T15:14:54;16.90;99.90
29363;DHT22;16349;53.672;10.014;2023-07-31T15:17:21;17.00;99.90
29363;DHT22;16349;53.672;10.014;2023-07-31T15:19:48;17.00;99.90